createdAt,value
2023-03-11T00:00:47.531Z,9.01
2023-03-11T00:02:51.396Z,8.91
2023-03-11T00:04:52.980Z,9.00
2023-03-11T00:06:55.872Z,8.95
2023-03-11T00:08:57.519Z,8.94
2023-03-11T00:10:59.929Z,8.98
2023-03-11T00:13:03.490Z,8.99
2023-03-11T00:15:06.096Z,8.92
2023-03-11T00:17:07.692Z,8.89
2023-03-11T00:19:10.321Z,8.93
2023-03-11T00:21:15.526Z,8.93
2023-03-11T00:23:18.547Z,8.94
2023-03-11T00:25:21.679Z,8.87
2023-03-11T00:27:23.373Z,8.92
2023-03-11T00:29:24.954Z,8.92
2023-03-11T00:31:26.650Z,8.88
2023-03-11T00:33:28.288Z,8.90
2023-03-11T00:35:32.692Z,8.84
2023-03-11T00:37:34.404Z,8.83
2023-03-11T00:39:37.565Z,8.77
2023-03-11T00:41:39.136Z,8.85
2023-03-11T00:43:40.766Z,8.80
2023-03-11T00:45:42.936Z,8.83
2023-03-11T00:47:44.616Z,8.85
2023-03-11T00:49:46.510Z,8.91
2023-03-11T00:51:53.954Z,8.90
2023-03-11T00:53:55.572Z,8.91
2023-03-11T00:55:58.644Z,8.83
2023-03-11T00:58:04.392Z,8.85
2023-03-11T01:00:07.160Z,8.73
2023-03-11T01:02:08.769Z,8.72
2023-03-11T01:04:10.555Z,8.70
2023-03-11T01:06:13.249Z,8.67
2023-03-11T01:08:14.936Z,8.59
2023-03-11T01:10:17.367Z,8.61
2023-03-11T01:12:20.274Z,8.62
2023-03-11T01:14:22.618Z,8.60
2023-03-11T01:16:24.886Z,8.56
2023-03-11T01:18:27.006Z,8.55
2023-03-11T01:20:29.227Z,8.44
2023-03-11T01:22:30.871Z,8.46
2023-03-11T01:24:32.533Z,8.49
2023-03-11T01:26:34.100Z,8.49
2023-03-11T01:28:37.085Z,8.49
2023-03-11T01:30:40.922Z,8.49
2023-03-11T01:32:43.204Z,8.47
2023-03-11T01:34:44.793Z,8.50
2023-03-11T01:36:46.323Z,8.53
2023-03-11T01:38:47.907Z,8.53
2023-03-11T01:40:51.854Z,8.51
2023-03-11T01:42:53.440Z,8.52
2023-03-11T01:44:59.198Z,8.48
2023-03-11T01:47:38.650Z,8.52
2023-03-11T01:49:40.496Z,8.54
2023-03-11T01:51:44.327Z,8.56
2023-03-11T01:53:46.372Z,8.88
2023-03-11T01:55:48.546Z,8.94
2023-03-11T01:57:51.672Z,8.93
2023-03-11T01:59:58.398Z,8.93
2023-03-11T02:02:16.008Z,8.94
2023-03-11T02:04:21.858Z,8.89
2023-03-11T02:06:25.425Z,8.92
2023-03-11T02:08:27.670Z,8.95
2023-03-11T02:10:30.468Z,8.94
2023-03-11T02:12:36.757Z,8.98
2023-03-11T02:14:43.872Z,9.00
2023-03-11T02:16:45.969Z,8.98
2023-03-11T02:18:49.080Z,8.98
2023-03-11T02:20:59.209Z,9.05
2023-03-11T02:23:01.231Z,9.04
2023-03-11T02:25:09.075Z,9.03
2023-03-11T02:27:18.062Z,9.04
2023-03-11T02:29:21.173Z,8.98
2023-03-11T02:31:23.969Z,8.97
2023-03-11T02:33:30.734Z,8.69
2023-03-11T02:35:32.325Z,8.68
2023-03-11T02:37:33.925Z,8.49
2023-03-11T02:39:37.330Z,8.47
2023-03-11T02:41:41.649Z,8.41
2023-03-11T02:43:46.653Z,8.39
2023-03-11T02:45:49.432Z,8.37
2023-03-11T02:47:52.769Z,8.36
2023-03-11T02:49:56.286Z,8.64
2023-03-11T02:51:57.884Z,8.74
2023-03-11T02:54:03.351Z,8.83
2023-03-11T02:56:05.344Z,8.48
2023-03-11T02:58:07.116Z,8.34
2023-03-11T03:00:12.041Z,8.32
2023-03-11T03:02:13.803Z,8.29
2023-03-11T03:04:15.393Z,8.29
2023-03-11T03:06:18.042Z,8.34
2023-03-11T03:08:19.654Z,8.33
2023-03-11T03:10:22.500Z,8.29
2023-03-11T03:12:24.397Z,8.23
2023-03-11T03:14:26.391Z,8.23
2023-03-11T03:16:29.348Z,8.22
2023-03-11T03:18:31.082Z,8.19
2023-03-11T03:20:32.705Z,8.23
2023-03-11T03:22:34.320Z,8.19
2023-03-11T03:24:35.893Z,8.07
2023-03-11T03:26:37.777Z,8.13
2023-03-11T03:28:39.525Z,8.11
2023-03-11T03:30:41.801Z,8.12
2023-03-11T03:32:44.942Z,8.10
2023-03-11T03:34:46.546Z,8.13
2023-03-11T03:36:48.089Z,8.11
2023-03-11T03:38:53.773Z,8.03
2023-03-11T03:40:55.456Z,8.06
2023-03-11T03:42:56.980Z,8.05
2023-03-11T03:44:58.591Z,8.02
2023-03-11T03:47:00.185Z,8.05
2023-03-11T03:49:03.132Z,7.99
2023-03-11T03:51:05.622Z,8.00
2023-03-11T03:53:07.377Z,7.99
2023-03-11T03:55:09.778Z,8.01
2023-03-11T03:57:11.364Z,7.99
2023-03-11T03:59:13.146Z,7.95
2023-03-11T04:01:14.968Z,7.95
2023-03-11T04:03:16.682Z,7.95
2023-03-11T04:05:19.724Z,7.93
2023-03-11T04:07:21.294Z,7.96
2023-03-11T04:09:22.884Z,7.98
2023-03-11T04:11:24.474Z,8.19
2023-03-11T04:13:26.014Z,8.03
2023-03-11T04:15:27.572Z,7.99
2023-03-11T04:17:29.237Z,8.02
2023-03-11T04:19:30.755Z,8.02
2023-03-11T04:21:33.994Z,8.06
2023-03-11T04:23:35.598Z,8.01
2023-03-11T04:25:37.274Z,8.04
2023-03-11T04:27:38.988Z,8.06
2023-03-11T04:29:40.523Z,8.07
2023-03-11T04:31:42.081Z,8.10
2023-03-11T04:33:43.732Z,8.15
2023-03-11T04:35:45.413Z,8.13
2023-03-11T04:37:48.367Z,8.13
2023-03-11T04:39:50.923Z,8.15
2023-03-11T04:41:52.598Z,8.17
2023-03-11T04:43:54.306Z,8.16
2023-03-11T04:45:56.056Z,8.17
2023-03-11T04:47:57.689Z,8.20
2023-03-11T04:49:59.305Z,8.16
2023-03-11T04:52:00.897Z,8.15
2023-03-11T04:54:03.979Z,8.18
2023-03-11T04:56:05.884Z,8.15
2023-03-11T04:58:07.598Z,8.08
2023-03-11T05:00:11.982Z,8.11
2023-03-11T05:02:13.704Z,8.10
2023-03-11T05:04:15.533Z,8.06
2023-03-11T05:06:17.138Z,8.08
2023-03-11T05:08:19.823Z,8.08
2023-03-11T05:10:22.876Z,8.06
2023-03-11T05:12:24.509Z,8.05
2023-03-11T05:14:26.219Z,8.03
2023-03-11T05:16:27.933Z,8.06
2023-03-11T05:18:29.706Z,8.09
2023-03-11T05:20:31.270Z,8.08
2023-03-11T05:22:33.165Z,8.06
2023-03-11T05:24:34.893Z,8.04
2023-03-11T05:26:37.788Z,8.01
2023-03-11T05:28:39.410Z,8.03
2023-03-11T05:30:41.098Z,8.01
2023-03-11T05:32:42.937Z,8.17
2023-03-11T05:34:44.751Z,8.01
2023-03-11T05:36:46.672Z,8.00
2023-03-11T05:38:48.189Z,8.00
2023-03-11T05:40:50.035Z,7.95
2023-03-11T05:42:52.937Z,7.95
2023-03-11T05:44:54.466Z,7.90
2023-03-11T05:46:56.254Z,7.88
2023-03-11T05:48:59.073Z,7.86
2023-03-11T05:51:00.637Z,7.83
2023-03-11T05:53:02.195Z,7.82
2023-03-11T05:55:04.212Z,7.78
2023-03-11T05:57:06.190Z,7.71
2023-03-11T05:59:09.495Z,7.69
2023-03-11T06:01:12.449Z,7.63
2023-03-11T06:03:13.975Z,7.52
2023-03-11T06:05:16.052Z,7.55
2023-03-11T06:07:17.778Z,7.57
2023-03-11T06:09:19.648Z,7.58
2023-03-11T06:11:21.200Z,7.57
2023-03-11T06:13:22.753Z,7.61
2023-03-11T06:15:25.613Z,7.60
2023-03-11T06:17:29.341Z,7.49
2023-03-11T06:19:32.017Z,7.49
2023-03-11T06:21:35.724Z,7.45
2023-03-11T06:23:37.324Z,7.44
2023-03-11T06:25:39.062Z,7.39
2023-03-11T06:27:40.656Z,7.35
2023-03-11T06:29:42.237Z,7.32
2023-03-11T06:31:45.346Z,7.37
2023-03-11T06:33:47.434Z,7.40
2023-03-11T06:35:56.429Z,7.47
2023-03-11T06:37:58.064Z,7.44
2023-03-11T06:39:59.644Z,7.48
2023-03-11T06:42:01.140Z,7.38
2023-03-11T06:44:02.744Z,7.40
2023-03-11T06:46:09.398Z,7.44
2023-03-11T06:48:12.380Z,7.48
2023-03-11T06:50:13.914Z,7.39
2023-03-11T06:52:15.518Z,7.40
2023-03-11T06:54:17.135Z,7.37
2023-03-11T06:56:20.058Z,7.38
2023-03-11T06:58:21.806Z,7.40
2023-03-11T07:00:23.662Z,7.46
2023-03-11T07:02:25.326Z,7.49
2023-03-11T07:04:28.331Z,7.55
2023-03-11T07:06:30.365Z,7.52
2023-03-11T07:08:31.950Z,7.52
2023-03-11T07:10:33.647Z,7.55
2023-03-11T07:12:35.290Z,7.56
2023-03-11T07:14:37.861Z,7.55
2023-03-11T07:16:39.941Z,7.58
2023-03-11T07:18:43.139Z,7.59
2023-03-11T07:20:46.033Z,7.61
2023-03-11T07:22:47.591Z,7.62
2023-03-11T07:24:50.136Z,7.72
2023-03-11T07:26:51.806Z,7.73
2023-03-11T07:28:54.595Z,7.72
2023-03-11T07:30:56.945Z,7.72
2023-03-11T07:32:58.601Z,7.69
2023-03-11T07:35:00.240Z,7.71
2023-03-11T07:37:03.869Z,7.71
2023-03-11T07:39:06.027Z,7.74
2023-03-11T07:41:09.258Z,7.76
2023-03-11T07:43:11.231Z,7.76
2023-03-11T07:45:12.974Z,7.81
2023-03-11T07:47:14.543Z,7.87
2023-03-11T07:49:16.560Z,7.91
2023-03-11T07:51:20.518Z,7.92
2023-03-11T07:53:23.879Z,7.95
2023-03-11T07:55:25.614Z,7.98
2023-03-11T07:57:27.464Z,8.03
2023-03-11T07:59:29.072Z,8.10
2023-03-11T08:01:32.379Z,8.12
2023-03-11T08:03:34.175Z,8.11
2023-03-11T08:05:35.729Z,8.09
2023-03-11T08:07:37.360Z,8.11
2023-03-11T08:09:40.275Z,8.28
2023-03-11T08:11:41.957Z,8.37
2023-03-11T08:13:44.780Z,8.57
2023-03-11T08:15:46.515Z,8.80
2023-03-11T08:17:48.163Z,8.99
2023-03-11T08:19:50.078Z,9.14
2023-03-11T08:21:51.938Z,9.22
2023-03-11T08:23:57.531Z,9.42
2023-03-11T08:26:03.552Z,9.60
2023-03-11T08:28:05.504Z,9.71
2023-03-11T08:30:08.791Z,10.18
2023-03-11T08:32:10.648Z,10.19
2023-03-11T08:34:15.196Z,10.21
2023-03-11T08:36:17.638Z,10.28
2023-03-11T08:38:19.352Z,10.41
2023-03-11T08:40:20.896Z,10.55
2023-03-11T08:42:23.894Z,10.63
2023-03-11T08:44:25.628Z,10.78
2023-03-11T08:46:29.317Z,10.93
2023-03-11T08:48:30.986Z,11.01
2023-03-11T08:50:38.738Z,11.14
2023-03-11T08:52:49.176Z,11.30
2023-03-11T08:54:50.917Z,11.36
2023-03-11T08:56:58.866Z,11.43
2023-03-11T08:59:02.075Z,11.36
2023-03-11T09:01:04.314Z,11.44
2023-03-11T09:03:06.159Z,11.45
2023-03-11T09:05:08.395Z,11.45
2023-03-11T09:07:11.595Z,11.49
2023-03-11T09:09:13.390Z,11.49
2023-03-11T09:11:15.903Z,11.43
2023-03-11T09:13:17.425Z,11.38
2023-03-11T09:15:20.445Z,11.40
2023-03-11T09:17:22.339Z,11.55
2023-03-11T09:19:23.859Z,11.56
2023-03-11T09:21:25.839Z,11.56
2023-03-11T09:23:27.493Z,11.50
2023-03-11T09:25:29.286Z,11.42
2023-03-11T09:27:30.860Z,11.63
2023-03-11T09:29:32.445Z,11.88
2023-03-11T09:31:35.453Z,11.86
2023-03-11T09:33:38.278Z,11.99
2023-03-11T09:35:39.878Z,12.23
2023-03-11T09:37:41.715Z,12.46
2023-03-11T09:39:43.726Z,12.60
2023-03-11T09:41:58.566Z,12.54
2023-03-11T09:44:13.990Z,12.55
2023-03-11T09:46:34.565Z,12.48
2023-03-11T09:48:44.562Z,12.39
2023-03-11T09:50:51.652Z,12.36
2023-03-11T09:53:02.450Z,12.27
2023-03-11T09:55:12.260Z,12.06
2023-03-11T09:57:17.850Z,12.12
2023-03-11T09:59:27.840Z,12.52
2023-03-11T10:01:36.462Z,12.85
2023-03-11T10:03:40.100Z,13.12
2023-03-11T10:05:45.140Z,13.23
2023-03-11T10:08:01.947Z,13.45
2023-03-11T10:10:04.096Z,13.60
2023-03-11T10:12:25.467Z,13.63
2023-03-11T10:14:43.600Z,13.63
2023-03-11T10:16:55.672Z,13.52
2023-03-11T10:19:03.858Z,13.44
2023-03-11T10:21:12.326Z,13.38
2023-03-11T10:23:22.222Z,13.38
2023-03-11T10:25:28.476Z,13.33
2023-03-11T10:27:35.776Z,13.29
2023-03-11T10:29:47.265Z,13.45
2023-03-11T10:31:54.768Z,13.79
2023-03-11T10:34:02.977Z,14.14
2023-03-11T10:36:10.340Z,14.45
2023-03-11T10:38:16.953Z,14.14
2023-03-11T10:40:28.634Z,13.65
2023-03-11T10:42:30.273Z,13.89
2023-03-11T10:44:34.984Z,14.02
2023-03-11T10:46:36.627Z,14.26
2023-03-11T10:48:38.242Z,14.74
2023-03-11T10:50:52.616Z,15.31
2023-03-11T10:53:08.969Z,15.32
2023-03-11T10:55:16.512Z,15.47
2023-03-11T10:57:24.153Z,15.50
2023-03-11T10:59:31.449Z,15.89
2023-03-11T11:01:33.122Z,16.30
2023-03-11T11:03:35.604Z,16.50
2023-03-11T11:05:37.341Z,17.12
2023-03-11T11:07:44.364Z,17.16
2023-03-11T11:09:46.118Z,16.66
2023-03-11T11:12:02.260Z,16.53
2023-03-11T11:14:03.807Z,16.24
2023-03-11T11:16:19.125Z,15.97
2023-03-11T11:18:23.078Z,15.72
2023-03-11T11:20:26.997Z,15.59
2023-03-11T11:22:28.760Z,15.08
2023-03-11T11:24:36.842Z,14.86
2023-03-11T11:26:41.479Z,14.73
2023-03-11T11:28:43.161Z,14.63
2023-03-11T11:30:53.769Z,14.46
2023-03-11T11:32:55.641Z,14.84
2023-03-11T11:34:59.606Z,15.86
2023-03-11T11:37:03.864Z,16.81
2023-03-11T11:39:16.365Z,17.69
2023-03-11T11:41:22.591Z,18.67
2023-03-11T11:43:37.403Z,19.49
2023-03-11T11:45:41.348Z,20.03
2023-03-11T11:47:47.549Z,20.11
2023-03-11T11:49:54.395Z,20.77
2023-03-11T11:52:00.516Z,21.28
2023-03-11T11:54:14.997Z,21.79
2023-03-11T11:56:16.576Z,22.30
2023-03-11T11:58:19.760Z,22.75
2023-03-11T12:00:24.306Z,23.15
2023-03-11T12:02:43.774Z,23.86
2023-03-11T12:04:53.412Z,24.15
2023-03-11T12:07:09.438Z,23.09
2023-03-11T12:09:23.259Z,22.34
2023-03-11T12:11:30.389Z,22.18
2023-03-11T12:13:54.434Z,23.06
2023-03-11T12:16:02.461Z,23.77
2023-03-11T12:18:12.397Z,24.41
2023-03-11T12:20:20.907Z,24.88
2023-03-11T12:23:03.608Z,25.16
2023-03-11T12:25:31.774Z,25.61
2023-03-11T12:27:41.311Z,25.45
2023-03-11T12:29:48.828Z,24.40
2023-03-11T12:31:51.556Z,24.67
2023-03-11T12:33:58.078Z,24.30
2023-03-11T12:36:01.830Z,23.84
2023-03-11T12:38:16.737Z,22.87
2023-03-11T12:40:47.521Z,22.19
2023-03-11T12:42:49.163Z,21.52
2023-03-11T12:44:52.417Z,20.92
2023-03-11T12:47:02.856Z,20.38
2023-03-11T12:49:12.573Z,20.00
2023-03-11T12:51:39.423Z,19.49
2023-03-11T12:53:47.407Z,19.10
2023-03-11T12:56:05.009Z,18.74
2023-03-11T12:58:40.635Z,18.37
2023-03-11T13:01:00.343Z,18.25
2023-03-11T13:03:28.750Z,18.05
2023-03-11T13:05:39.993Z,17.85
2023-03-11T13:07:48.320Z,17.83
2023-03-11T13:10:01.897Z,17.85
2023-03-11T13:12:04.054Z,17.81
2023-03-11T13:14:27.037Z,17.75
2023-03-11T13:16:41.288Z,17.62
2023-03-11T13:18:44.589Z,17.52
2023-03-11T13:20:52.013Z,17.32
2023-03-11T13:23:24.358Z,16.84
2023-03-11T13:25:30.043Z,16.77
2023-03-11T13:27:40.788Z,16.77
2023-03-11T13:29:52.025Z,16.76
2023-03-11T13:32:12.533Z,16.23
2023-03-11T13:34:16.389Z,16.07
2023-03-11T13:36:39.192Z,16.07
2023-03-11T13:39:02.136Z,15.97
2023-03-11T13:41:13.332Z,15.91
2023-03-11T13:43:17.472Z,15.89
2023-03-11T13:45:29.288Z,15.82
2023-03-11T13:47:35.394Z,15.67
2023-03-11T13:49:42.769Z,15.67
2023-03-11T13:51:47.520Z,15.55
2023-03-11T13:53:54.575Z,15.55
2023-03-11T13:55:58.239Z,15.27
2023-03-11T13:57:59.890Z,14.80
2023-03-11T14:00:16.568Z,14.67
2023-03-11T14:02:20.441Z,14.04
2023-03-11T14:04:27.116Z,14.30
2023-03-11T14:06:30.638Z,14.45
2023-03-11T14:08:34.131Z,14.60
2023-03-11T14:10:36.247Z,14.68
2023-03-11T14:12:38.405Z,14.56
2023-03-11T14:14:46.474Z,14.28
2023-03-11T14:16:48.415Z,14.24
2023-03-11T14:19:02.766Z,14.33
2023-03-11T14:21:11.731Z,14.42
2023-03-11T14:23:19.070Z,14.48
2023-03-11T14:25:24.077Z,14.58
2023-03-11T14:27:27.836Z,14.59
2023-03-11T14:29:32.789Z,14.64
2023-03-11T14:31:36.676Z,14.64
2023-03-11T14:33:38.360Z,14.68
2023-03-11T14:35:40.109Z,14.73
2023-03-11T14:37:43.022Z,14.75
2023-03-11T14:39:45.363Z,14.78
2023-03-11T14:41:47.317Z,14.79
2023-03-11T14:43:53.932Z,14.75
2023-03-11T14:45:56.492Z,14.66
2023-03-11T14:48:03.851Z,14.71
2023-03-11T14:50:10.066Z,14.60
2023-03-11T14:52:18.716Z,14.61
2023-03-11T14:54:25.948Z,14.56
2023-03-11T14:56:28.135Z,14.57
2023-03-11T14:58:32.875Z,14.50
2023-03-11T15:00:40.232Z,14.45
2023-03-11T15:02:48.126Z,14.42
2023-03-11T15:04:50.764Z,14.41
2023-03-11T15:06:53.454Z,14.39
2023-03-11T15:08:58.603Z,14.32
2023-03-11T15:11:18.944Z,14.31
2023-03-11T15:13:24.245Z,14.24
2023-03-11T15:15:30.011Z,14.24
2023-03-11T15:17:38.382Z,14.21
2023-03-11T15:19:45.104Z,14.21
2023-03-11T15:21:47.845Z,14.13
2023-03-11T15:23:51.545Z,14.02
2023-03-11T15:25:53.210Z,14.01
2023-03-11T15:27:56.709Z,13.91
2023-03-11T15:29:59.676Z,13.93
2023-03-11T15:32:37.330Z,13.89
2023-03-11T15:34:39.041Z,13.87
2023-03-11T15:36:45.402Z,13.90
2023-03-11T15:38:47.314Z,13.83
2023-03-11T15:40:55.215Z,13.83
2023-03-11T15:43:26.475Z,13.79
2023-03-11T15:45:28.597Z,13.74
2023-03-11T15:47:31.960Z,13.72
2023-03-11T15:49:33.874Z,13.58
2023-03-11T15:51:35.765Z,13.22
2023-03-11T15:53:37.338Z,13.06
2023-03-11T15:55:38.984Z,13.06
2023-03-11T15:57:41.451Z,12.87
2023-03-11T15:59:43.229Z,12.78
2023-03-11T16:01:44.845Z,12.59
2023-03-11T16:03:48.153Z,12.39
2023-03-11T16:05:50.150Z,12.19
2023-03-11T16:07:51.855Z,12.12
2023-03-11T16:09:53.488Z,12.14
2023-03-11T16:11:55.650Z,12.23
2023-03-11T16:13:57.436Z,12.38
2023-03-11T16:15:59.200Z,12.46
2023-03-11T16:18:03.538Z,12.55
2023-03-11T16:20:07.666Z,12.60
2023-03-11T16:22:16.572Z,12.64
2023-03-11T16:24:23.485Z,12.69
2023-03-11T16:26:25.081Z,12.72
2023-03-11T16:28:27.075Z,12.71
2023-03-11T16:30:32.261Z,12.72
2023-03-11T16:32:33.938Z,12.77
2023-03-11T16:34:35.521Z,12.74
2023-03-11T16:36:38.447Z,12.77
2023-03-11T16:38:44.216Z,12.79
2023-03-11T16:40:49.651Z,12.80
2023-03-11T16:42:54.544Z,12.70
2023-03-11T16:44:56.055Z,12.57
2023-03-11T16:46:57.688Z,12.44
2023-03-11T16:48:59.244Z,12.29
2023-03-11T16:51:01.448Z,12.12
2023-03-11T16:53:04.476Z,12.09
2023-03-11T16:55:06.903Z,12.12
2023-03-11T16:57:08.529Z,12.16
2023-03-11T16:59:12.075Z,12.24
2023-03-11T17:01:14.055Z,12.21
2023-03-11T17:03:21.383Z,12.20
2023-03-11T17:05:23.871Z,12.23
2023-03-11T17:07:25.502Z,12.24
2023-03-11T17:09:28.482Z,12.21
2023-03-11T17:11:30.284Z,12.18
2023-03-11T17:13:31.927Z,12.11
2023-03-11T17:15:33.960Z,12.11
2023-03-11T17:17:36.152Z,12.09
2023-03-11T17:19:37.861Z,12.08
2023-03-11T17:21:39.781Z,12.04
2023-03-11T17:23:42.446Z,12.04
2023-03-11T17:25:45.455Z,12.05
2023-03-11T17:27:47.131Z,12.03
2023-03-11T17:29:50.859Z,11.92
2023-03-11T17:31:52.446Z,11.93
2023-03-11T17:33:54.141Z,11.86
2023-03-11T17:36:00.836Z,11.90
2023-03-11T17:38:02.941Z,11.83
2023-03-11T17:40:05.609Z,11.82
2023-03-11T17:42:08.637Z,11.82
2023-03-11T17:44:10.446Z,11.82
2023-03-11T17:46:14.367Z,11.78
2023-03-11T17:48:16.170Z,11.75
2023-03-11T17:50:20.759Z,11.65
2023-03-11T17:52:22.402Z,11.68
2023-03-11T17:54:24.242Z,11.63
2023-03-11T17:56:26.033Z,11.64
2023-03-11T17:58:28.918Z,11.62
2023-03-11T18:00:30.697Z,11.53
2023-03-11T18:02:32.411Z,11.52
2023-03-11T18:04:34.015Z,11.55
2023-03-11T18:06:35.597Z,11.54
2023-03-11T18:08:37.722Z,11.47
2023-03-11T18:10:39.340Z,11.38
2023-03-11T18:12:43.916Z,11.34
2023-03-11T18:14:46.933Z,11.33
2023-03-11T18:16:48.539Z,11.29
2023-03-11T18:18:50.305Z,11.23
2023-03-11T18:20:52.043Z,11.18
2023-03-11T18:22:53.670Z,11.15
2023-03-11T18:24:55.400Z,11.08
2023-03-11T18:26:57.078Z,11.10
2023-03-11T18:28:59.812Z,11.11
2023-03-11T18:31:07.294Z,11.07
2023-03-11T18:33:08.920Z,11.09
2023-03-11T18:35:11.078Z,11.08
2023-03-11T18:37:12.771Z,11.00
2023-03-11T18:39:14.390Z,10.92
2023-03-11T18:41:16.159Z,10.88
2023-03-11T18:43:17.820Z,10.87
2023-03-11T18:45:21.994Z,10.89
2023-03-11T18:47:25.414Z,10.74
2023-03-11T18:49:27.072Z,10.68
2023-03-11T18:51:31.004Z,10.65
2023-03-11T18:53:32.853Z,10.65
2023-03-11T18:55:35.448Z,10.48
2023-03-11T18:57:37.101Z,10.29
2023-03-11T18:59:38.663Z,10.21
2023-03-11T19:01:40.318Z,10.24
2023-03-11T19:03:45.124Z,10.26
2023-03-11T19:05:48.948Z,10.24
2023-03-11T19:07:52.046Z,10.25
2023-03-11T19:09:53.686Z,10.17
2023-03-11T19:11:55.305Z,9.98
2023-03-11T19:13:56.910Z,9.99
2023-03-11T19:15:59.778Z,9.76
2023-03-11T19:18:06.978Z,9.72
2023-03-11T19:20:12.076Z,9.67
2023-03-11T19:22:13.700Z,9.73
2023-03-11T19:24:15.284Z,9.70
2023-03-11T19:26:17.069Z,9.75
2023-03-11T19:28:18.926Z,9.83
2023-03-11T19:30:21.339Z,9.88
2023-03-11T19:32:23.172Z,9.81
2023-03-11T19:34:24.872Z,9.89
2023-03-11T19:36:28.006Z,9.91
2023-03-11T19:38:30.009Z,9.86
2023-03-11T19:40:31.591Z,9.87
2023-03-11T19:42:33.464Z,9.88
2023-03-11T19:44:35.173Z,9.86
2023-03-11T19:46:36.808Z,9.76
2023-03-11T19:48:38.421Z,9.72
2023-03-11T19:50:40.454Z,9.69
2023-03-11T19:52:43.486Z,9.67
2023-03-11T19:54:45.103Z,9.69
2023-03-11T19:56:46.856Z,9.71
2023-03-11T19:58:48.405Z,9.66
2023-03-11T20:00:50.438Z,9.65
2023-03-11T20:02:54.544Z,9.58
2023-03-11T20:04:56.411Z,9.60
2023-03-11T20:06:58.411Z,9.64
2023-03-11T20:09:01.457Z,9.62
2023-03-11T20:11:04.177Z,9.58
2023-03-11T20:13:06.747Z,9.60
2023-03-11T20:15:09.716Z,9.53
2023-03-11T20:17:11.274Z,9.49
2023-03-11T20:19:12.891Z,9.41
2023-03-11T20:21:14.591Z,9.39
2023-03-11T20:23:16.206Z,9.45
2023-03-11T20:25:19.177Z,9.45
2023-03-11T20:27:20.998Z,9.38
2023-03-11T20:29:24.137Z,9.32
2023-03-11T20:31:27.636Z,9.25
2023-03-11T20:33:29.447Z,9.17
2023-03-11T20:35:31.012Z,9.14
2023-03-11T20:37:33.143Z,9.08
2023-03-11T20:39:34.828Z,8.97
2023-03-11T20:41:40.212Z,8.96
2023-03-11T20:43:42.401Z,8.96
2023-03-11T20:45:44.067Z,8.89
2023-03-11T20:47:45.750Z,8.85
2023-03-11T20:49:47.343Z,8.85
2023-03-11T20:51:49.097Z,8.87
2023-03-11T20:53:51.838Z,8.82
2023-03-11T20:55:53.549Z,8.83
2023-03-11T20:57:56.728Z,8.84
2023-03-11T20:59:58.394Z,8.82
2023-03-11T21:02:00.150Z,8.83
2023-03-11T21:04:03.704Z,8.83
2023-03-11T21:06:13.025Z,8.80
2023-03-11T21:08:14.828Z,8.82
2023-03-11T21:10:17.435Z,8.78
2023-03-11T21:12:19.037Z,8.74
2023-03-11T21:14:22.034Z,8.74
2023-03-11T21:16:24.111Z,8.74
2023-03-11T21:18:25.935Z,8.74
2023-03-11T21:20:27.891Z,8.73
2023-03-11T21:22:29.604Z,8.74
2023-03-11T21:24:32.930Z,8.71
2023-03-11T21:26:34.822Z,8.63
2023-03-11T21:28:37.074Z,8.66
2023-03-11T21:30:40.942Z,8.62
2023-03-11T21:32:42.784Z,8.53
2023-03-11T21:34:44.710Z,8.54
2023-03-11T21:36:49.179Z,8.49
2023-03-11T21:38:51.483Z,8.43
2023-03-11T21:40:54.370Z,8.42
2023-03-11T21:42:56.001Z,8.45
2023-03-11T21:44:57.700Z,8.45
2023-03-11T21:47:00.890Z,8.43
2023-03-11T21:49:02.573Z,8.41
2023-03-11T21:51:04.852Z,8.36
2023-03-11T21:53:07.195Z,8.33
2023-03-11T21:55:09.621Z,8.28
2023-03-11T21:57:11.229Z,8.27
2023-03-11T21:59:12.942Z,8.29
2023-03-11T22:01:14.874Z,8.28
2023-03-11T22:03:18.411Z,8.22
2023-03-11T22:05:20.135Z,8.18
2023-03-11T22:07:21.739Z,8.17
2023-03-11T22:09:23.374Z,8.17
2023-03-11T22:11:25.213Z,8.17
2023-03-11T22:13:26.913Z,8.18
2023-03-11T22:15:28.521Z,8.16
2023-03-11T22:17:30.209Z,8.17
2023-03-11T22:19:33.425Z,8.13
2023-03-11T22:21:35.097Z,8.08
2023-03-11T22:23:36.779Z,8.07
2023-03-11T22:25:38.561Z,8.06
2023-03-11T22:27:40.140Z,8.06
2023-03-11T22:29:41.934Z,8.13
2023-03-11T22:31:43.648Z,8.08
2023-03-11T22:33:45.492Z,8.11
2023-03-11T22:35:53.802Z,8.08
2023-03-11T22:38:00.668Z,8.07
2023-03-11T22:40:02.304Z,8.07
2023-03-11T22:42:04.055Z,8.08
2023-03-11T22:44:06.065Z,8.05
2023-03-11T22:46:07.864Z,8.06
2023-03-11T22:48:09.647Z,8.04
2023-03-11T22:50:11.329Z,8.06
2023-03-11T22:52:17.556Z,8.03
2023-03-11T22:54:19.198Z,7.99
2023-03-11T22:56:20.890Z,7.99
2023-03-11T22:58:22.486Z,7.99
2023-03-11T23:00:25.858Z,7.94
2023-03-11T23:02:27.443Z,7.95
2023-03-11T23:04:29.502Z,7.96
2023-03-11T23:06:31.172Z,7.94
2023-03-11T23:08:35.461Z,7.88
2023-03-11T23:10:38.944Z,7.89
2023-03-11T23:12:41.865Z,7.84
2023-03-11T23:14:45.262Z,7.78
2023-03-11T23:16:48.209Z,7.84
2023-03-11T23:18:52.125Z,7.88
2023-03-11T23:20:53.745Z,7.86
2023-03-11T23:22:55.445Z,7.91
2023-03-11T23:25:01.114Z,7.95
2023-03-11T23:27:03.119Z,7.92
2023-03-11T23:29:05.055Z,7.98
2023-03-11T23:31:06.905Z,7.97
2023-03-11T23:33:08.517Z,7.85
2023-03-11T23:35:11.447Z,7.87
2023-03-11T23:37:13.235Z,7.90
2023-03-11T23:39:15.127Z,7.84
2023-03-11T23:41:20.539Z,7.78
2023-03-11T23:43:22.404Z,7.77
2023-03-11T23:45:24.087Z,7.77
2023-03-11T23:47:25.687Z,7.75
2023-03-11T23:49:27.378Z,7.76
2023-03-11T23:51:28.961Z,7.73
2023-03-11T23:53:31.077Z,7.73
2023-03-11T23:55:37.106Z,7.65
2023-03-11T23:57:40.156Z,7.60
2023-03-11T23:59:41.730Z,7.64
